createdAt,value
2019-02-02T00:01:46.516Z,21.97
2019-02-02T00:04:17.533Z,21.23
2019-02-02T00:06:47.072Z,20.97
2019-02-02T00:09:16.472Z,24.23
2019-02-02T00:11:45.855Z,21.83
2019-02-02T00:14:15.218Z,23.87
2019-02-02T00:16:44.714Z,27.63
2019-02-02T00:19:14.073Z,23.10
2019-02-02T00:21:43.458Z,21.47
2019-02-02T00:24:12.822Z,27.00
2019-02-02T00:26:43.344Z,22.53
2019-02-02T00:29:12.849Z,22.73
2019-02-02T00:31:42.339Z,24.77
2019-02-02T00:34:11.747Z,19.50
2019-02-02T00:36:41.205Z,23.10
2019-02-02T00:39:11.411Z,24.63
2019-02-02T00:41:40.831Z,24.97
2019-02-02T00:44:10.189Z,24.13
2019-02-02T00:46:39.555Z,22.77
2019-02-02T00:49:10.390Z,24.83
2019-02-02T00:51:39.754Z,21.63
2019-02-02T00:54:09.378Z,18.57
2019-02-02T00:56:40.453Z,22.63
2019-02-02T00:59:09.870Z,24.43
2019-02-02T01:01:39.513Z,23.73
2019-02-02T01:04:08.988Z,19.27
2019-02-02T01:06:38.378Z,20.07
2019-02-02T01:09:17.660Z,16.17
2019-02-02T01:11:47.032Z,21.63
2019-02-02T01:14:16.539Z,18.83
2019-02-02T01:16:45.926Z,19.70
2019-02-02T01:19:15.351Z,23.03
2019-02-02T01:21:44.677Z,22.20
2019-02-02T01:24:14.048Z,19.97
2019-02-02T01:26:43.391Z,22.33
2019-02-02T01:29:12.860Z,18.23
2019-02-02T01:31:42.255Z,17.13
2019-02-02T01:34:11.860Z,15.67
2019-02-02T01:36:41.283Z,19.43
2019-02-02T01:39:13.797Z,21.10
2019-02-02T01:41:43.213Z,21.77
2019-02-02T01:44:12.531Z,25.60
2019-02-02T01:46:41.857Z,17.47
2019-02-02T01:49:11.221Z,18.77
2019-02-02T01:51:40.531Z,18.03
2019-02-02T01:54:09.960Z,18.63
2019-02-02T01:56:39.255Z,17.40
2019-02-02T01:59:08.564Z,19.37
2019-02-02T02:01:37.924Z,19.63
2019-02-02T02:04:07.267Z,19.23
2019-02-02T02:06:36.788Z,19.20
2019-02-02T02:09:08.065Z,18.23
2019-02-02T02:11:37.545Z,20.07
2019-02-02T02:14:07.088Z,18.90
2019-02-02T02:16:36.509Z,16.23
2019-02-02T02:19:05.891Z,15.13
2019-02-02T02:21:35.266Z,19.33
2019-02-02T02:24:04.848Z,17.77
2019-02-02T02:26:34.224Z,16.80
2019-02-02T02:29:03.596Z,15.10
2019-02-02T02:31:32.931Z,17.47
2019-02-02T02:34:02.303Z,18.47
2019-02-02T02:36:31.779Z,23.03
2019-02-02T02:39:01.286Z,19.70
2019-02-02T02:41:30.749Z,18.67
2019-02-02T02:44:00.114Z,17.37
2019-02-02T02:46:29.481Z,19.73
2019-02-02T02:48:58.953Z,18.20
2019-02-02T02:51:28.338Z,18.57
2019-02-02T02:53:57.708Z,19.13
2019-02-02T02:56:27.048Z,16.57
2019-02-02T02:58:56.460Z,19.57
2019-02-02T03:01:25.782Z,15.97
2019-02-02T03:03:55.157Z,15.47
2019-02-02T03:06:24.536Z,20.63
2019-02-02T03:08:53.999Z,17.63
2019-02-02T03:11:23.370Z,19.50
2019-02-02T03:13:52.701Z,18.43
2019-02-02T03:16:22.064Z,18.77
2019-02-02T03:18:51.500Z,20.27
2019-02-02T03:21:20.855Z,20.00
2019-02-02T03:23:50.237Z,18.67
2019-02-02T03:26:19.565Z,21.43
2019-02-02T03:28:53.643Z,21.90
2019-02-02T03:31:19.992Z,24.73
2019-02-02T03:33:49.351Z,18.50
2019-02-02T03:36:18.732Z,27.87
2019-02-02T03:38:48.195Z,18.53
2019-02-02T03:41:17.526Z,25.47
2019-02-02T03:43:46.852Z,25.63
2019-02-02T03:46:16.170Z,21.10
2019-02-02T03:48:45.471Z,23.83
2019-02-02T03:51:14.874Z,24.63
2019-02-02T03:53:44.163Z,26.70
2019-02-02T03:56:13.546Z,26.57
2019-02-02T03:58:42.859Z,22.13
2019-02-02T04:01:12.376Z,25.73
2019-02-02T04:03:41.798Z,27.60
2019-02-02T04:06:11.499Z,27.23
2019-02-02T04:08:40.866Z,26.77
2019-02-02T04:11:10.395Z,27.57
2019-02-02T04:13:39.823Z,26.90
2019-02-02T04:16:09.252Z,25.30
2019-02-02T04:18:38.942Z,23.73
2019-02-02T04:21:08.285Z,24.17
2019-02-02T04:23:37.652Z,22.97
2019-02-02T04:26:07.000Z,23.10
2019-02-02T04:28:36.348Z,26.63
2019-02-02T04:31:05.761Z,25.20
2019-02-02T04:33:35.099Z,25.13
2019-02-02T04:36:04.534Z,29.67
2019-02-02T04:38:33.906Z,23.10
2019-02-02T04:41:03.229Z,24.57
2019-02-02T04:43:32.610Z,29.00
2019-02-02T04:46:01.952Z,21.50
2019-02-02T04:48:32.542Z,29.07
2019-02-02T04:51:02.013Z,22.80
2019-02-02T04:53:31.333Z,31.40
2019-02-02T04:56:00.640Z,24.20
2019-02-02T04:58:30.043Z,25.83
2019-02-02T05:00:59.424Z,25.67
2019-02-02T05:03:28.854Z,32.00
2019-02-02T05:05:58.191Z,23.50
2019-02-02T05:08:27.520Z,30.87
2019-02-02T05:10:56.876Z,22.93
2019-02-02T05:13:26.215Z,28.13
2019-02-02T05:15:55.564Z,27.17
2019-02-02T05:18:25.112Z,29.03
2019-02-02T05:20:54.508Z,25.90
2019-02-02T05:23:23.894Z,25.10
2019-02-02T05:25:53.283Z,25.83
2019-02-02T05:28:22.631Z,28.70
2019-02-02T05:30:52.013Z,28.03
2019-02-02T05:33:21.444Z,26.17
2019-02-02T05:35:50.793Z,24.10
2019-02-02T05:38:20.351Z,22.03
2019-02-02T05:40:49.798Z,28.10
2019-02-02T05:43:19.222Z,24.83
2019-02-02T05:45:48.711Z,26.37
2019-02-02T05:48:18.042Z,24.63
2019-02-02T05:50:47.529Z,23.67
2019-02-02T05:53:16.854Z,29.40
2019-02-02T05:55:46.275Z,29.00
2019-02-02T05:58:15.573Z,29.30
2019-02-02T06:00:50.591Z,27.07
2019-02-02T06:03:20.100Z,23.87
2019-02-02T06:05:49.576Z,28.93
2019-02-02T06:08:18.935Z,25.57
2019-02-02T06:10:48.488Z,19.80
2019-02-02T06:13:17.833Z,28.90
2019-02-02T06:15:47.252Z,24.03
2019-02-02T06:18:16.683Z,19.80
2019-02-02T06:20:46.027Z,22.53
2019-02-02T06:23:15.376Z,24.57
2019-02-02T06:25:44.790Z,20.73
2019-02-02T06:28:14.091Z,20.27
2019-02-02T06:30:43.967Z,21.87
2019-02-02T06:33:13.312Z,24.00
2019-02-02T06:35:42.691Z,20.73
2019-02-02T06:38:12.105Z,19.10
2019-02-02T06:40:41.768Z,24.30
2019-02-02T06:43:11.129Z,20.13
2019-02-02T06:45:40.492Z,19.17
2019-02-02T06:48:09.827Z,22.23
2019-02-02T06:50:39.271Z,16.63
2019-02-02T06:53:08.686Z,20.07
2019-02-02T06:55:37.988Z,19.57
2019-02-02T06:58:07.320Z,17.67
2019-02-02T07:00:36.752Z,21.93
2019-02-02T07:03:06.103Z,20.80
2019-02-02T07:05:35.448Z,16.30
2019-02-02T07:08:04.886Z,17.63
2019-02-02T07:10:34.404Z,22.10
2019-02-02T07:13:03.832Z,21.45
2019-02-02T07:15:33.151Z,17.80
2019-02-02T07:18:02.583Z,15.67
2019-02-02T07:20:32.007Z,22.33
2019-02-02T07:23:01.384Z,16.13
2019-02-02T07:25:30.740Z,16.93
2019-02-02T07:28:00.160Z,18.97
2019-02-02T07:30:29.964Z,19.47
2019-02-02T07:32:59.460Z,16.33
2019-02-02T07:35:29.013Z,21.43
2019-02-02T07:37:58.452Z,17.33
2019-02-02T07:40:27.954Z,20.93
2019-02-02T07:42:57.506Z,17.57
2019-02-02T07:45:29.106Z,19.73
2019-02-02T07:47:58.481Z,21.27
2019-02-02T07:50:28.161Z,17.90
2019-02-02T07:52:57.511Z,17.93
2019-02-02T07:55:27.084Z,21.63
2019-02-02T07:57:56.453Z,17.97
2019-02-02T08:00:40.297Z,17.10
2019-02-02T08:03:02.674Z,18.27
2019-02-02T08:05:32.323Z,15.93
2019-02-02T08:08:01.669Z,21.03
2019-02-02T08:10:31.165Z,19.73
2019-02-02T08:13:00.536Z,20.07
2019-02-02T08:15:31.452Z,18.97
2019-02-02T08:18:00.825Z,18.67
2019-02-02T08:20:30.236Z,19.63
2019-02-02T08:22:59.616Z,16.73
2019-02-02T08:25:29.052Z,20.83
2019-02-02T08:27:58.532Z,18.67
2019-02-02T08:30:30.037Z,20.93
2019-02-02T08:32:59.589Z,20.40
2019-02-02T08:35:29.162Z,20.83
2019-02-02T08:37:58.520Z,17.60
2019-02-02T08:40:28.111Z,18.90
2019-02-02T08:42:57.533Z,18.23
2019-02-02T08:45:26.995Z,20.13
2019-02-02T08:47:56.433Z,21.60
2019-02-02T08:50:31.256Z,22.03
2019-02-02T08:53:00.782Z,23.03
2019-02-02T08:55:30.213Z,19.77
2019-02-02T08:57:59.626Z,22.50
2019-02-02T09:00:29.182Z,23.17
2019-02-02T09:02:58.546Z,22.20
2019-02-02T09:05:27.942Z,18.43
2019-02-02T09:07:57.285Z,16.73
2019-02-02T09:10:28.035Z,18.57
2019-02-02T09:12:57.838Z,18.03
2019-02-02T09:15:27.619Z,15.97
2019-02-02T09:17:57.075Z,15.03
2019-02-02T09:20:26.443Z,15.27
2019-02-02T09:23:04.221Z,18.50
2019-02-02T09:25:27.121Z,21.50
2019-02-02T09:27:56.701Z,16.93
2019-02-02T09:30:34.185Z,17.77
2019-02-02T09:33:03.785Z,24.83
2019-02-02T09:35:33.343Z,18.30
2019-02-02T09:38:02.839Z,20.03
2019-02-02T09:40:32.304Z,21.87
2019-02-02T09:43:01.716Z,21.73
2019-02-02T09:45:31.112Z,19.63
2019-02-02T09:48:00.718Z,23.60
2019-02-02T09:50:30.164Z,20.97
2019-02-02T09:52:59.587Z,22.67
2019-02-02T09:55:28.990Z,28.73
2019-02-02T09:58:01.473Z,26.33
2019-02-02T10:00:31.741Z,28.57
2019-02-02T10:03:01.210Z,36.57
2019-02-02T10:05:31.287Z,35.60
2019-02-02T10:08:00.824Z,29.73
2019-02-02T10:10:31.968Z,32.63
2019-02-02T10:13:01.284Z,35.00
2019-02-02T10:15:30.641Z,37.07
2019-02-02T10:18:00.088Z,39.73
2019-02-02T10:20:30.266Z,30.17
2019-02-02T10:23:00.136Z,33.23
2019-02-02T10:25:30.671Z,31.03
2019-02-02T10:28:00.094Z,33.33
2019-02-02T10:30:37.584Z,33.43
2019-02-02T10:33:07.258Z,29.97
2019-02-02T10:35:36.715Z,33.90
2019-02-02T10:38:06.588Z,31.43
2019-02-02T10:40:36.267Z,28.50
2019-02-02T10:43:05.975Z,37.50
2019-02-02T10:45:35.499Z,28.37
2019-02-02T10:48:05.283Z,28.50
2019-02-02T10:50:34.873Z,30.20
2019-02-02T10:53:04.288Z,32.00
2019-02-02T10:55:33.799Z,33.77
2019-02-02T10:58:03.188Z,30.43
2019-02-02T11:00:34.051Z,31.47
2019-02-02T11:03:03.706Z,33.67
2019-02-02T11:05:33.282Z,33.80
2019-02-02T11:08:03.069Z,31.73
2019-02-02T11:10:33.128Z,34.10
2019-02-02T11:13:02.859Z,31.47
2019-02-02T11:15:32.243Z,30.43
2019-02-02T11:18:01.977Z,35.53
2019-02-02T11:20:32.991Z,34.73
2019-02-02T11:23:02.517Z,39.25
2019-02-02T11:25:32.100Z,35.23
2019-02-02T11:28:01.597Z,40.10
2019-02-02T11:30:31.638Z,39.40
2019-02-02T11:33:01.087Z,37.27
2019-02-02T11:35:30.583Z,45.00
2019-02-02T11:38:00.130Z,40.83
2019-02-02T11:40:31.146Z,40.27
2019-02-02T11:43:01.127Z,42.40
2019-02-02T11:45:30.709Z,42.50
2019-02-02T11:48:00.088Z,41.23
2019-02-02T11:50:29.741Z,41.60
2019-02-02T11:52:59.271Z,39.63
2019-02-02T11:55:28.945Z,37.53
2019-02-02T11:57:58.482Z,33.53
2019-02-02T12:00:29.752Z,34.93
2019-02-02T12:02:59.637Z,34.97
2019-02-02T12:05:29.136Z,36.27
2019-02-02T12:07:58.492Z,40.23
2019-02-02T12:10:28.553Z,34.30
2019-02-02T12:12:57.922Z,35.13
2019-02-02T12:15:27.478Z,37.07
2019-02-02T12:17:56.971Z,35.83
2019-02-02T12:20:26.504Z,35.00
2019-02-02T12:22:55.949Z,37.77
2019-02-02T12:25:25.454Z,33.83
2019-02-02T12:27:55.226Z,34.00
2019-02-02T12:30:27.224Z,35.87
2019-02-02T12:32:56.916Z,39.40
2019-02-02T12:35:26.794Z,37.70
2019-02-02T12:37:56.410Z,40.60
2019-02-02T12:40:26.182Z,43.87
2019-02-02T12:42:55.796Z,39.10
2019-02-02T12:45:28.131Z,42.07
2019-02-02T12:47:57.656Z,41.57
2019-02-02T12:50:27.074Z,42.37
2019-02-02T12:52:59.241Z,41.23
2019-02-02T12:55:28.648Z,34.63
2019-02-02T12:57:58.350Z,37.43
2019-02-02T13:00:27.875Z,40.67
2019-02-02T13:02:57.470Z,40.80
2019-02-02T13:05:27.148Z,35.03
2019-02-02T13:07:56.527Z,36.60
2019-02-02T13:10:26.898Z,36.47
2019-02-02T13:12:56.375Z,39.53
2019-02-02T13:15:25.825Z,40.43
2019-02-02T13:17:55.336Z,36.83
2019-02-02T13:20:24.903Z,40.80
2019-02-02T13:22:54.378Z,43.57
2019-02-02T13:25:23.996Z,43.00
2019-02-02T13:27:53.422Z,53.00
2019-02-02T13:30:31.436Z,45.50
2019-02-02T13:33:00.980Z,48.63
2019-02-02T13:35:31.675Z,54.07
2019-02-02T13:38:01.131Z,51.13
2019-02-02T13:40:30.581Z,53.47
2019-02-02T13:43:00.221Z,50.57
2019-02-02T13:45:29.654Z,48.63
2019-02-02T13:47:59.002Z,48.43
2019-02-02T13:50:28.460Z,52.60
2019-02-02T13:52:57.872Z,48.30
2019-02-02T13:55:27.335Z,49.40
2019-02-02T13:57:56.753Z,43.57
2019-02-02T14:00:28.299Z,47.80
2019-02-02T14:03:02.820Z,41.57
2019-02-02T14:05:29.015Z,46.00
2019-02-02T14:08:00.284Z,49.70
2019-02-02T14:10:30.687Z,44.90
2019-02-02T14:13:00.053Z,46.57
2019-02-02T14:15:29.488Z,39.47
2019-02-02T14:17:58.953Z,42.60
2019-02-02T14:20:28.372Z,42.17
2019-02-02T14:22:58.013Z,47.93
2019-02-02T14:25:27.540Z,41.63
2019-02-02T14:27:57.082Z,54.77
2019-02-02T14:30:26.852Z,47.83
2019-02-02T14:32:56.281Z,44.03
2019-02-02T14:35:27.075Z,46.00
2019-02-02T14:37:56.483Z,44.63
2019-02-02T14:40:25.863Z,46.50
2019-02-02T14:42:55.282Z,54.07
2019-02-02T14:45:27.354Z,55.23
2019-02-02T14:47:56.504Z,50.33
2019-02-02T14:50:26.247Z,49.83
2019-02-02T14:52:55.890Z,54.87
2019-02-02T14:55:27.237Z,52.87
2019-02-02T14:57:56.822Z,56.90
2019-02-02T15:00:29.889Z,52.43
2019-02-02T15:03:00.101Z,55.50
2019-02-02T15:05:42.166Z,59.13
2019-02-02T15:08:02.287Z,57.70
2019-02-02T15:10:32.099Z,60.10
2019-02-02T15:13:01.858Z,60.10
2019-02-02T15:15:31.595Z,55.60
2019-02-02T15:18:01.070Z,62.10
2019-02-02T15:20:38.161Z,68.20
2019-02-02T15:23:11.935Z,65.97
2019-02-02T15:25:42.544Z,62.87
2019-02-02T15:28:12.238Z,64.33
2019-02-02T15:30:46.220Z,70.57
2019-02-02T15:33:16.842Z,74.27
2019-02-02T15:35:46.445Z,65.47
2019-02-02T15:38:18.790Z,67.77
2019-02-02T15:40:58.477Z,71.93
2019-02-02T15:43:18.172Z,75.00
2019-02-02T15:45:47.658Z,69.73
2019-02-02T15:48:17.087Z,65.70
2019-02-02T15:50:46.516Z,70.23
2019-02-02T15:53:15.999Z,73.50
2019-02-02T15:55:45.455Z,73.07
2019-02-02T15:58:14.901Z,72.07
2019-02-02T16:00:44.367Z,79.60
2019-02-02T16:03:13.798Z,70.43
2019-02-02T16:05:43.243Z,72.73
2019-02-02T16:08:16.565Z,78.63
2019-02-02T16:10:46.200Z,72.60
2019-02-02T16:13:15.631Z,78.70
2019-02-02T16:15:45.121Z,78.30
2019-02-02T16:18:14.558Z,79.83
2019-02-02T16:20:45.191Z,86.80
2019-02-02T16:23:14.729Z,87.77
2019-02-02T16:25:44.155Z,92.15
2019-02-02T16:28:13.726Z,80.90
2019-02-02T16:30:43.411Z,87.27
2019-02-02T16:33:12.967Z,83.37
2019-02-02T16:35:42.569Z,73.43
2019-02-02T16:38:12.092Z,86.70
2019-02-02T16:40:41.625Z,70.03
2019-02-02T16:43:11.073Z,82.23
2019-02-02T16:45:40.519Z,83.73
2019-02-02T16:48:09.927Z,89.00
2019-02-02T16:50:39.341Z,93.50
2019-02-02T16:53:08.888Z,89.63
2019-02-02T16:55:38.530Z,90.50
2019-02-02T16:58:08.184Z,83.53
2019-02-02T17:00:38.386Z,86.03
2019-02-02T17:03:07.944Z,87.70
2019-02-02T17:05:37.308Z,91.90
2019-02-02T17:08:06.955Z,93.77
2019-02-02T17:10:40.468Z,95.87
2019-02-02T17:13:10.040Z,85.13
2019-02-02T17:15:39.504Z,87.93
2019-02-02T17:18:08.906Z,87.47
2019-02-02T17:20:40.701Z,82.63
2019-02-02T17:23:10.164Z,85.87
2019-02-02T17:25:39.666Z,75.83
2019-02-02T17:28:09.391Z,74.73
2019-02-02T17:30:39.174Z,79.33
2019-02-02T17:33:10.858Z,80.33
2019-02-02T17:35:40.349Z,79.10
2019-02-02T17:38:09.735Z,84.47
2019-02-02T17:40:39.284Z,74.33
2019-02-02T17:43:10.760Z,76.37
2019-02-02T17:45:40.408Z,81.93
2019-02-02T17:48:12.906Z,79.57
2019-02-02T17:50:41.269Z,67.40
2019-02-02T17:53:10.806Z,68.17
2019-02-02T17:55:40.318Z,66.33
2019-02-02T17:58:09.836Z,66.17
2019-02-02T18:00:47.576Z,62.13
2019-02-02T18:03:16.910Z,63.00
2019-02-02T18:05:46.435Z,59.37
2019-02-02T18:08:15.778Z,57.17
2019-02-02T18:10:45.256Z,67.47
2019-02-02T18:13:14.841Z,63.07
2019-02-02T18:15:44.224Z,61.70
2019-02-02T18:18:13.714Z,57.23
2019-02-02T18:20:43.212Z,63.27
2019-02-02T18:23:12.722Z,65.73
2019-02-02T18:25:42.222Z,53.33
2019-02-02T18:28:11.758Z,57.47
2019-02-02T18:30:41.186Z,61.90
2019-02-02T18:33:10.704Z,57.90
2019-02-02T18:35:40.326Z,59.93
2019-02-02T18:38:09.719Z,57.73
2019-02-02T18:40:40.086Z,61.07
2019-02-02T18:43:09.655Z,58.40
2019-02-02T18:45:39.058Z,58.67
2019-02-02T18:48:08.689Z,60.73
2019-02-02T18:50:38.178Z,60.80
2019-02-02T18:53:07.645Z,58.17
2019-02-02T18:55:57.647Z,64.77
2019-02-02T18:58:27.123Z,60.50
2019-02-02T19:00:56.558Z,64.50
2019-02-02T19:03:25.997Z,65.50
2019-02-02T19:05:55.351Z,65.83
2019-02-02T19:08:24.899Z,64.00
2019-02-02T19:10:54.341Z,69.73
2019-02-02T19:15:58.667Z,66.70
2019-02-02T19:18:28.084Z,68.90
2019-02-02T19:20:57.485Z,77.60
2019-02-02T19:23:26.949Z,76.43
2019-02-02T19:25:56.463Z,72.43
2019-02-02T19:28:28.255Z,66.27
2019-02-02T19:30:56.935Z,75.87
2019-02-02T19:33:26.363Z,78.53
2019-02-02T19:35:55.871Z,75.60
2019-02-02T19:38:25.381Z,73.50
2019-02-02T19:40:54.808Z,73.80
2019-02-02T19:43:24.161Z,79.90
2019-02-02T19:45:53.786Z,81.20
2019-02-02T19:48:23.373Z,89.20
2019-02-02T19:50:52.766Z,86.67
2019-02-02T19:53:22.230Z,82.80
2019-02-02T19:55:51.664Z,85.83
2019-02-02T19:58:21.176Z,93.43
2019-02-02T20:00:50.566Z,96.93
2019-02-02T20:03:19.972Z,97.27
2019-02-02T20:05:49.526Z,95.27
2019-02-02T20:08:18.987Z,96.37
2019-02-02T20:10:48.490Z,107.60
2019-02-02T20:13:19.598Z,106.87
2019-02-02T20:15:49.197Z,109.37
2019-02-02T20:18:18.614Z,111.33
2019-02-02T20:20:48.060Z,106.13
2019-02-02T20:23:17.517Z,114.87
2019-02-02T20:25:47.069Z,113.10
2019-02-02T20:28:16.590Z,122.47
2019-02-02T20:30:46.030Z,123.30
2019-02-02T20:33:15.452Z,120.70
2019-02-02T20:35:44.941Z,115.77
2019-02-02T20:38:14.386Z,123.97
2019-02-02T20:40:43.906Z,114.47
2019-02-02T20:43:13.348Z,112.77
2019-02-02T20:45:42.822Z,123.27
2019-02-02T20:48:12.329Z,125.53
2019-02-02T20:50:41.851Z,121.70
2019-02-02T20:53:11.199Z,120.97
2019-02-02T20:55:42.831Z,117.07
2019-02-02T20:58:12.197Z,115.07
2019-02-02T21:00:41.633Z,116.50
2019-02-02T21:03:11.144Z,108.40
2019-02-02T21:05:51.594Z,99.83
2019-02-02T21:08:11.765Z,98.93
2019-02-02T21:10:41.218Z,98.40
2019-02-02T21:13:12.670Z,105.00
2019-02-02T21:15:42.851Z,94.70
2019-02-02T21:18:12.304Z,101.90
2019-02-02T21:20:41.845Z,102.47
2019-02-02T21:23:11.461Z,103.83
2019-02-02T21:25:41.000Z,90.63
2019-02-02T21:28:10.481Z,104.60
2019-02-02T21:30:39.928Z,97.90
2019-02-02T21:33:09.521Z,93.83
2019-02-02T21:35:38.989Z,97.07
2019-02-02T21:38:08.466Z,104.17
2019-02-02T21:40:37.991Z,97.83
2019-02-02T21:43:08.804Z,102.03
2019-02-02T21:45:38.444Z,101.70
2019-02-02T21:48:08.280Z,110.00
2019-02-02T21:50:37.754Z,101.13
2019-02-02T21:53:07.205Z,91.30
2019-02-02T21:55:36.651Z,95.40
2019-02-02T21:58:06.253Z,106.90
2019-02-02T22:00:37.827Z,90.03
2019-02-02T22:03:07.999Z,102.30
2019-02-02T22:05:37.754Z,101.97
2019-02-02T22:08:08.570Z,97.13
2019-02-02T22:10:38.325Z,111.73
2019-02-02T22:13:10.644Z,101.80
2019-02-02T22:15:40.129Z,104.20
2019-02-02T22:18:09.636Z,101.63
2019-02-02T22:20:39.119Z,100.57
2019-02-02T22:23:09.069Z,99.80
2019-02-02T22:25:38.583Z,100.07
2019-02-02T22:28:08.375Z,110.17
2019-02-02T22:30:38.284Z,110.83
2019-02-02T22:33:07.925Z,102.53
2019-02-02T22:35:37.652Z,104.43
2019-02-02T22:38:07.076Z,102.17
2019-02-02T22:40:36.432Z,108.87
2019-02-02T22:43:06.171Z,100.60
2019-02-02T22:45:35.641Z,112.83
2019-02-02T22:48:06.192Z,102.83
2019-02-02T22:50:35.650Z,101.13
2019-02-02T22:53:05.329Z,104.80
2019-02-02T22:55:34.909Z,104.63
2019-02-02T22:58:06.811Z,108.13
2019-02-02T23:01:11.949Z,101.13
2019-02-02T23:04:31.593Z,99.90
2019-02-02T23:07:43.919Z,87.00
2019-02-02T23:10:57.330Z,96.53
2019-02-02T23:14:04.983Z,92.57
2019-02-02T23:16:34.831Z,95.23
2019-02-02T23:19:04.683Z,93.17
2019-02-02T23:21:34.117Z,89.73
2019-02-02T23:24:03.647Z,95.80
2019-02-02T23:26:33.070Z,93.77
2019-02-02T23:29:02.591Z,111.37
2019-02-02T23:31:32.020Z,100.83
2019-02-02T23:34:01.667Z,99.87
2019-02-02T23:36:31.300Z,97.93
2019-02-02T23:39:00.875Z,106.50
2019-02-02T23:41:30.399Z,97.77
2019-02-02T23:44:00.023Z,104.33
2019-02-02T23:46:29.438Z,120.80
2019-02-02T23:49:00.532Z,107.27
2019-02-02T23:51:29.871Z,106.77
2019-02-02T23:53:59.861Z,122.00
2019-02-02T23:56:29.614Z,122.10
2019-02-02T23:58:59.029Z,120.67
